sensor_id;sensor_type;location;lat;lon;timestamp;P1;durP1;ratioP1;P2;durP2;ratioP2
53108;SDS011;39007;53.090;6.074;2024-02-23T00:00:51;7.65;;;2.20;;
53108;SDS011;39007;53.090;6.074;2024-02-23T00:03:17;11.05;;;1.58;;
53108;SDS011;39007;53.090;6.074;2024-02-23T00:05:43;4.45;;;1.13;;
53108;SDS011;39007;53.090;6.074;2024-02-23T00:08:09;5.47;;;1.27;;
53108;SDS011;39007;53.090;6.074;2024-02-23T00:10:35;4.68;;;1.20;;
53108;SDS011;39007;53.090;6.074;2024-02-23T00:13:01;5.57;;;1.15;;
53108;SDS011;39007;53.090;6.074;2024-02-23T00:15:27;5.32;;;1.48;;
53108;SDS011;39007;53.090;6.074;2024-02-23T00:17:53;5.78;;;1.15;;
53108;SDS011;39007;53.090;6.074;2024-02-23T00:20:19;7.70;;;1.30;;
53108;SDS011;39007;53.090;6.074;2024-02-23T00:22:46;8.02;;;1.67;;
53108;SDS011;39007;53.090;6.074;2024-02-23T00:25:12;4.40;;;1.40;;
53108;SDS011;39007;53.090;6.074;2024-02-23T00:27:39;5.22;;;1.10;;
53108;SDS011;39007;53.090;6.074;2024-02-23T00:30:07;8.50;;;2.13;;
53108;SDS011;39007;53.090;6.074;2024-02-23T00:32:33;9.13;;;1.98;;
53108;SDS011;39007;53.090;6.074;2024-02-23T00:34:59;7.05;;;1.67;;
53108;SDS011;39007;53.090;6.074;2024-02-23T00:37:25;4.03;;;1.38;;
53108;SDS011;39007;53.090;6.074;2024-02-23T00:39:51;10.80;;;1.73;;
53108;SDS011;39007;53.090;6.074;2024-02-23T00:42:17;10.50;;;2.15;;
53108;SDS011;39007;53.090;6.074;2024-02-23T00:44:45;10.70;;;1.80;;
53108;SDS011;39007;53.090;6.074;2024-02-23T00:47:12;8.40;;;1.98;;
53108;SDS011;39007;53.090;6.074;2024-02-23T00:49:38;6.22;;;2.13;;
53108;SDS011;39007;53.090;6.074;2024-02-23T00:52:04;8.63;;;1.73;;
53108;SDS011;39007;53.090;6.074;2024-02-23T00:54:30;7.30;;;1.77;;
53108;SDS011;39007;53.090;6.074;2024-02-23T00:56:56;6.85;;;1.60;;
53108;SDS011;39007;53.090;6.074;2024-02-23T00:59:22;8.68;;;1.88;;
53108;SDS011;39007;53.090;6.074;2024-02-23T01:01:48;9.30;;;1.67;;
53108;SDS011;39007;53.090;6.074;2024-02-23T01:04:15;10.75;;;1.65;;
53108;SDS011;39007;53.090;6.074;2024-02-23T01:06:41;13.80;;;3.00;;
53108;SDS011;39007;53.090;6.074;2024-02-23T01:09:07;11.77;;;2.55;;
53108;SDS011;39007;53.090;6.074;2024-02-23T01:11:33;12.40;;;2.50;;
53108;SDS011;39007;53.090;6.074;2024-02-23T01:13:59;14.13;;;2.85;;
53108;SDS011;39007;53.090;6.074;2024-02-23T01:16:25;13.25;;;2.60;;
53108;SDS011;39007;53.090;6.074;2024-02-23T01:18:51;15.95;;;2.67;;
53108;SDS011;39007;53.090;6.074;2024-02-23T01:21:17;11.38;;;2.78;;
53108;SDS011;39007;53.090;6.074;2024-02-23T01:23:43;14.60;;;2.78;;
53108;SDS011;39007;53.090;6.074;2024-02-23T01:26:09;18.30;;;3.42;;
53108;SDS011;39007;53.090;6.074;2024-02-23T01:28:35;20.77;;;3.63;;
53108;SDS011;39007;53.090;6.074;2024-02-23T01:31:01;16.05;;;2.85;;
53108;SDS011;39007;53.090;6.074;2024-02-23T01:33:29;19.45;;;3.47;;
53108;SDS011;39007;53.090;6.074;2024-02-23T01:35:55;18.60;;;2.95;;
53108;SDS011;39007;53.090;6.074;2024-02-23T01:38:23;16.17;;;3.28;;
53108;SDS011;39007;53.090;6.074;2024-02-23T01:40:50;13.85;;;2.83;;
53108;SDS011;39007;53.090;6.074;2024-02-23T01:43:16;15.43;;;3.20;;
53108;SDS011;39007;53.090;6.074;2024-02-23T01:45:42;18.55;;;3.78;;
53108;SDS011;39007;53.090;6.074;2024-02-23T01:48:08;18.42;;;3.50;;
53108;SDS011;39007;53.090;6.074;2024-02-23T01:50:34;19.40;;;3.78;;
53108;SDS011;39007;53.090;6.074;2024-02-23T01:53:00;8.10;;;2.58;;
53108;SDS011;39007;53.090;6.074;2024-02-23T01:55:28;13.20;;;2.97;;
53108;SDS011;39007;53.090;6.074;2024-02-23T01:57:54;15.75;;;4.18;;
53108;SDS011;39007;53.090;6.074;2024-02-23T02:00:21;11.63;;;2.65;;
53108;SDS011;39007;53.090;6.074;2024-02-23T02:02:47;14.38;;;2.92;;
53108;SDS011;39007;53.090;6.074;2024-02-23T02:05:14;10.07;;;2.05;;
53108;SDS011;39007;53.090;6.074;2024-02-23T02:07:40;17.58;;;3.28;;
53108;SDS011;39007;53.090;6.074;2024-02-23T02:10:08;17.17;;;3.22;;
53108;SDS011;39007;53.090;6.074;2024-02-23T02:12:34;19.42;;;3.58;;
53108;SDS011;39007;53.090;6.074;2024-02-23T02:15:01;19.15;;;3.60;;
53108;SDS011;39007;53.090;6.074;2024-02-23T02:17:27;16.30;;;3.50;;
53108;SDS011;39007;53.090;6.074;2024-02-23T02:19:54;14.10;;;2.97;;
53108;SDS011;39007;53.090;6.074;2024-02-23T02:22:20;14.75;;;3.53;;
53108;SDS011;39007;53.090;6.074;2024-02-23T02:24:46;20.38;;;3.78;;
53108;SDS011;39007;53.090;6.074;2024-02-23T02:27:13;12.63;;;2.78;;
53108;SDS011;39007;53.090;6.074;2024-02-23T02:29:39;17.65;;;3.80;;
53108;SDS011;39007;53.090;6.074;2024-02-23T02:32:05;17.27;;;3.67;;
53108;SDS011;39007;53.090;6.074;2024-02-23T02:34:32;13.80;;;3.67;;
53108;SDS011;39007;53.090;6.074;2024-02-23T02:36:59;21.67;;;3.22;;
53108;SDS011;39007;53.090;6.074;2024-02-23T02:39:25;20.55;;;3.55;;
53108;SDS011;39007;53.090;6.074;2024-02-23T02:41:51;13.70;;;2.75;;
53108;SDS011;39007;53.090;6.074;2024-02-23T02:44:17;13.02;;;2.85;;
53108;SDS011;39007;53.090;6.074;2024-02-23T02:46:44;13.70;;;2.83;;
53108;SDS011;39007;53.090;6.074;2024-02-23T02:49:11;19.42;;;3.50;;
53108;SDS011;39007;53.090;6.074;2024-02-23T02:51:37;17.73;;;3.65;;
53108;SDS011;39007;53.090;6.074;2024-02-23T02:54:04;13.65;;;2.95;;
53108;SDS011;39007;53.090;6.074;2024-02-23T02:56:30;13.85;;;2.95;;
53108;SDS011;39007;53.090;6.074;2024-02-23T02:58:56;16.25;;;3.50;;
53108;SDS011;39007;53.090;6.074;2024-02-23T03:01:22;12.93;;;2.10;;
53108;SDS011;39007;53.090;6.074;2024-02-23T03:03:48;13.20;;;2.83;;
53108;SDS011;39007;53.090;6.074;2024-02-23T03:06:14;13.68;;;2.50;;
53108;SDS011;39007;53.090;6.074;2024-02-23T03:08:43;15.13;;;2.58;;
53108;SDS011;39007;53.090;6.074;2024-02-23T03:11:09;13.80;;;2.50;;
53108;SDS011;39007;53.090;6.074;2024-02-23T03:13:37;13.20;;;3.17;;
53108;SDS011;39007;53.090;6.074;2024-02-23T03:16:03;12.40;;;2.95;;
53108;SDS011;39007;53.090;6.074;2024-02-23T03:18:29;10.85;;;2.42;;
53108;SDS011;39007;53.090;6.074;2024-02-23T03:20:55;14.15;;;2.70;;
53108;SDS011;39007;53.090;6.074;2024-02-23T03:23:21;19.60;;;4.13;;
53108;SDS011;39007;53.090;6.074;2024-02-23T03:25:48;15.35;;;2.90;;
53108;SDS011;39007;53.090;6.074;2024-02-23T03:28:14;12.15;;;2.50;;
53108;SDS011;39007;53.090;6.074;2024-02-23T03:30:40;16.83;;;3.08;;
53108;SDS011;39007;53.090;6.074;2024-02-23T03:33:06;19.25;;;2.72;;
53108;SDS011;39007;53.090;6.074;2024-02-23T03:35:33;13.80;;;2.60;;
53108;SDS011;39007;53.090;6.074;2024-02-23T03:37:59;17.73;;;3.25;;
53108;SDS011;39007;53.090;6.074;2024-02-23T03:40:25;17.65;;;3.28;;
53108;SDS011;39007;53.090;6.074;2024-02-23T03:42:51;11.63;;;2.70;;
53108;SDS011;39007;53.090;6.074;2024-02-23T03:45:17;14.48;;;3.35;;
53108;SDS011;39007;53.090;6.074;2024-02-23T03:47:43;14.10;;;3.03;;
53108;SDS011;39007;53.090;6.074;2024-02-23T03:50:09;10.38;;;2.63;;
53108;SDS011;39007;53.090;6.074;2024-02-23T03:52:35;9.77;;;2.80;;
53108;SDS011;39007;53.090;6.074;2024-02-23T03:55:01;14.18;;;2.60;;
53108;SDS011;39007;53.090;6.074;2024-02-23T03:57:30;18.35;;;3.08;;
53108;SDS011;39007;53.090;6.074;2024-02-23T03:59:56;10.02;;;2.30;;
53108;SDS011;39007;53.090;6.074;2024-02-23T04:02:22;17.50;;;3.00;;
53108;SDS011;39007;53.090;6.074;2024-02-23T04:04:49;12.40;;;2.75;;
53108;SDS011;39007;53.090;6.074;2024-02-23T04:07:15;11.18;;;2.45;;
53108;SDS011;39007;53.090;6.074;2024-02-23T04:09:41;11.70;;;2.15;;
53108;SDS011;39007;53.090;6.074;2024-02-23T04:12:07;10.48;;;2.35;;
53108;SDS011;39007;53.090;6.074;2024-02-23T04:14:33;15.80;;;3.35;;
53108;SDS011;39007;53.090;6.074;2024-02-23T04:17:04;11.80;;;2.72;;
53108;SDS011;39007;53.090;6.074;2024-02-23T04:19:30;16.35;;;2.88;;
53108;SDS011;39007;53.090;6.074;2024-02-23T04:21:56;12.23;;;2.78;;
53108;SDS011;39007;53.090;6.074;2024-02-23T04:24:22;14.98;;;2.85;;
53108;SDS011;39007;53.090;6.074;2024-02-23T04:26:48;11.70;;;2.10;;
53108;SDS011;39007;53.090;6.074;2024-02-23T04:29:14;10.98;;;2.60;;
53108;SDS011;39007;53.090;6.074;2024-02-23T04:31:40;15.57;;;2.95;;
53108;SDS011;39007;53.090;6.074;2024-02-23T04:34:06;12.05;;;2.33;;
53108;SDS011;39007;53.090;6.074;2024-02-23T04:36:32;11.93;;;2.80;;
53108;SDS011;39007;53.090;6.074;2024-02-23T04:38:58;16.17;;;3.08;;
53108;SDS011;39007;53.090;6.074;2024-02-23T04:41:24;14.70;;;2.88;;
53108;SDS011;39007;53.090;6.074;2024-02-23T04:43:50;14.07;;;2.42;;
53108;SDS011;39007;53.090;6.074;2024-02-23T04:46:18;13.05;;;2.28;;
53108;SDS011;39007;53.090;6.074;2024-02-23T04:48:44;11.75;;;2.20;;
53108;SDS011;39007;53.090;6.074;2024-02-23T04:51:10;13.77;;;2.58;;
53108;SDS011;39007;53.090;6.074;2024-02-23T04:53:37;9.35;;;2.20;;
53108;SDS011;39007;53.090;6.074;2024-02-23T04:56:03;17.45;;;3.38;;
53108;SDS011;39007;53.090;6.074;2024-02-23T04:58:29;15.40;;;3.20;;
53108;SDS011;39007;53.090;6.074;2024-02-23T05:00:56;14.85;;;2.50;;
53108;SDS011;39007;53.090;6.074;2024-02-23T05:03:22;13.95;;;2.47;;
53108;SDS011;39007;53.090;6.074;2024-02-23T05:05:48;12.15;;;2.63;;
53108;SDS011;39007;53.090;6.074;2024-02-23T05:08:18;16.35;;;2.90;;
53108;SDS011;39007;53.090;6.074;2024-02-23T05:10:46;12.98;;;3.08;;
53108;SDS011;39007;53.090;6.074;2024-02-23T05:13:12;15.35;;;2.72;;
53108;SDS011;39007;53.090;6.074;2024-02-23T05:15:38;12.65;;;2.65;;
53108;SDS011;39007;53.090;6.074;2024-02-23T05:18:05;12.32;;;3.33;;
53108;SDS011;39007;53.090;6.074;2024-02-23T05:20:31;14.15;;;2.58;;
53108;SDS011;39007;53.090;6.074;2024-02-23T05:22:57;13.52;;;2.90;;
53108;SDS011;39007;53.090;6.074;2024-02-23T05:25:23;14.07;;;2.97;;
53108;SDS011;39007;53.090;6.074;2024-02-23T05:27:51;12.35;;;2.88;;
53108;SDS011;39007;53.090;6.074;2024-02-23T05:30:17;16.08;;;2.90;;
53108;SDS011;39007;53.090;6.074;2024-02-23T05:32:43;14.82;;;3.15;;
53108;SDS011;39007;53.090;6.074;2024-02-23T05:35:09;13.25;;;3.03;;
53108;SDS011;39007;53.090;6.074;2024-02-23T05:37:36;13.18;;;3.20;;
53108;SDS011;39007;53.090;6.074;2024-02-23T05:40:05;17.83;;;2.58;;
53108;SDS011;39007;53.090;6.074;2024-02-23T05:42:35;14.30;;;2.83;;
53108;SDS011;39007;53.090;6.074;2024-02-23T05:45:01;13.40;;;2.72;;
53108;SDS011;39007;53.090;6.074;2024-02-23T05:47:30;12.85;;;2.25;;
53108;SDS011;39007;53.090;6.074;2024-02-23T05:49:56;14.70;;;2.67;;
53108;SDS011;39007;53.090;6.074;2024-02-23T05:52:22;14.60;;;3.00;;
53108;SDS011;39007;53.090;6.074;2024-02-23T05:54:48;12.93;;;3.40;;
53108;SDS011;39007;53.090;6.074;2024-02-23T05:57:14;10.02;;;2.72;;
53108;SDS011;39007;53.090;6.074;2024-02-23T05:59:40;12.77;;;2.83;;
53108;SDS011;39007;53.090;6.074;2024-02-23T06:02:06;22.00;;;3.65;;
53108;SDS011;39007;53.090;6.074;2024-02-23T06:04:33;14.30;;;3.65;;
53108;SDS011;39007;53.090;6.074;2024-02-23T06:06:59;13.38;;;3.47;;
53108;SDS011;39007;53.090;6.074;2024-02-23T06:09:25;15.10;;;3.45;;
53108;SDS011;39007;53.090;6.074;2024-02-23T06:11:51;14.85;;;4.30;;
53108;SDS011;39007;53.090;6.074;2024-02-23T06:14:17;12.82;;;3.80;;
53108;SDS011;39007;53.090;6.074;2024-02-23T06:16:43;12.50;;;4.07;;
53108;SDS011;39007;53.090;6.074;2024-02-23T06:19:09;14.50;;;4.43;;
53108;SDS011;39007;53.090;6.074;2024-02-23T06:21:35;17.27;;;4.20;;
53108;SDS011;39007;53.090;6.074;2024-02-23T06:24:02;13.10;;;3.53;;
53108;SDS011;39007;53.090;6.074;2024-02-23T06:26:28;11.70;;;3.95;;
53108;SDS011;39007;53.090;6.074;2024-02-23T06:28:54;19.10;;;4.25;;
53108;SDS011;39007;53.090;6.074;2024-02-23T06:31:20;13.85;;;4.22;;
53108;SDS011;39007;53.090;6.074;2024-02-23T06:33:46;16.08;;;4.18;;
53108;SDS011;39007;53.090;6.074;2024-02-23T06:36:14;12.48;;;4.05;;
53108;SDS011;39007;53.090;6.074;2024-02-23T06:38:41;11.80;;;3.60;;
53108;SDS011;39007;53.090;6.074;2024-02-23T06:41:07;13.55;;;4.18;;
53108;SDS011;39007;53.090;6.074;2024-02-23T06:43:36;16.40;;;4.10;;
53108;SDS011;39007;53.090;6.074;2024-02-23T06:46:08;16.20;;;4.50;;
53108;SDS011;39007;53.090;6.074;2024-02-23T06:48:34;15.55;;;4.60;;
53108;SDS011;39007;53.090;6.074;2024-02-23T06:51:00;17.85;;;4.85;;
53108;SDS011;39007;53.090;6.074;2024-02-23T06:53:27;16.35;;;5.00;;
53108;SDS011;39007;53.090;6.074;2024-02-23T06:55:53;12.85;;;4.45;;
53108;SDS011;39007;53.090;6.074;2024-02-23T06:58:19;14.98;;;5.53;;
53108;SDS011;39007;53.090;6.074;2024-02-23T07:00:45;17.73;;;5.60;;
53108;SDS011;39007;53.090;6.074;2024-02-23T07:03:11;19.13;;;5.70;;
53108;SDS011;39007;53.090;6.074;2024-02-23T07:05:38;13.98;;;5.18;;
53108;SDS011;39007;53.090;6.074;2024-02-23T07:08:04;16.15;;;5.65;;
53108;SDS011;39007;53.090;6.074;2024-02-23T07:10:30;21.05;;;6.10;;
53108;SDS011;39007;53.090;6.074;2024-02-23T07:12:56;19.40;;;6.03;;
53108;SDS011;39007;53.090;6.074;2024-02-23T07:15:23;12.32;;;5.55;;
53108;SDS011;39007;53.090;6.074;2024-02-23T07:17:50;18.80;;;6.22;;
53108;SDS011;39007;53.090;6.074;2024-02-23T07:20:17;15.48;;;5.93;;
53108;SDS011;39007;53.090;6.074;2024-02-23T07:22:46;14.52;;;5.47;;
53108;SDS011;39007;53.090;6.074;2024-02-23T07:25:15;12.32;;;5.18;;
53108;SDS011;39007;53.090;6.074;2024-02-23T07:27:41;12.90;;;5.25;;
53108;SDS011;39007;53.090;6.074;2024-02-23T07:30:08;16.98;;;5.00;;
53108;SDS011;39007;53.090;6.074;2024-02-23T07:32:35;13.45;;;4.68;;
53108;SDS011;39007;53.090;6.074;2024-02-23T07:35:01;13.00;;;4.90;;
53108;SDS011;39007;53.090;6.074;2024-02-23T07:37:29;13.32;;;4.47;;
53108;SDS011;39007;53.090;6.074;2024-02-23T07:39:55;11.10;;;4.10;;
53108;SDS011;39007;53.090;6.074;2024-02-23T07:42:21;14.48;;;4.25;;
53108;SDS011;39007;53.090;6.074;2024-02-23T07:44:47;13.57;;;5.03;;
53108;SDS011;39007;53.090;6.074;2024-02-23T07:47:13;9.40;;;4.30;;
53108;SDS011;39007;53.090;6.074;2024-02-23T07:49:39;14.48;;;4.65;;
53108;SDS011;39007;53.090;6.074;2024-02-23T07:52:08;13.35;;;4.82;;
53108;SDS011;39007;53.090;6.074;2024-02-23T07:54:34;14.32;;;4.55;;
53108;SDS011;39007;53.090;6.074;2024-02-23T07:57:00;13.93;;;5.18;;
53108;SDS011;39007;53.090;6.074;2024-02-23T07:59:26;16.08;;;4.90;;
53108;SDS011;39007;53.090;6.074;2024-02-23T08:01:53;12.93;;;4.80;;
53108;SDS011;39007;53.090;6.074;2024-02-23T08:04:20;15.73;;;5.68;;
53108;SDS011;39007;53.090;6.074;2024-02-23T08:06:47;12.80;;;5.57;;
53108;SDS011;39007;53.090;6.074;2024-02-23T08:09:13;14.68;;;5.80;;
53108;SDS011;39007;53.090;6.074;2024-02-23T08:11:39;10.25;;;5.40;;
53108;SDS011;39007;53.090;6.074;2024-02-23T08:14:05;10.55;;;5.05;;
53108;SDS011;39007;53.090;6.074;2024-02-23T08:16:32;12.48;;;5.18;;
53108;SDS011;39007;53.090;6.074;2024-02-23T08:18:58;8.90;;;4.35;;
53108;SDS011;39007;53.090;6.074;2024-02-23T08:21:25;10.43;;;4.50;;
53108;SDS011;39007;53.090;6.074;2024-02-23T08:23:54;12.40;;;4.60;;
53108;SDS011;39007;53.090;6.074;2024-02-23T08:26:20;11.13;;;4.78;;
53108;SDS011;39007;53.090;6.074;2024-02-23T08:28:46;11.18;;;4.40;;
53108;SDS011;39007;53.090;6.074;2024-02-23T08:31:12;11.63;;;4.15;;
53108;SDS011;39007;53.090;6.074;2024-02-23T08:33:38;12.68;;;4.20;;
53108;SDS011;39007;53.090;6.074;2024-02-23T08:36:04;13.15;;;3.70;;
53108;SDS011;39007;53.090;6.074;2024-02-23T08:38:32;9.90;;;3.72;;
53108;SDS011;39007;53.090;6.074;2024-02-23T08:40:58;10.15;;;3.65;;
53108;SDS011;39007;53.090;6.074;2024-02-23T08:43:24;9.57;;;3.10;;
53108;SDS011;39007;53.090;6.074;2024-02-23T08:45:50;7.60;;;2.45;;
53108;SDS011;39007;53.090;6.074;2024-02-23T08:48:17;9.82;;;2.75;;
53108;SDS011;39007;53.090;6.074;2024-02-23T08:50:43;11.02;;;3.22;;
53108;SDS011;39007;53.090;6.074;2024-02-23T08:53:10;11.30;;;3.00;;
53108;SDS011;39007;53.090;6.074;2024-02-23T08:55:36;9.80;;;2.67;;
53108;SDS011;39007;53.090;6.074;2024-02-23T08:58:02;7.07;;;2.95;;
53108;SDS011;39007;53.090;6.074;2024-02-23T09:00:28;10.48;;;2.63;;
53108;SDS011;39007;53.090;6.074;2024-02-23T09:02:54;12.85;;;3.50;;
53108;SDS011;39007;53.090;6.074;2024-02-23T09:05:20;6.30;;;2.15;;
53108;SDS011;39007;53.090;6.074;2024-02-23T09:07:46;7.97;;;2.63;;
53108;SDS011;39007;53.090;6.074;2024-02-23T09:10:12;8.93;;;2.50;;
53108;SDS011;39007;53.090;6.074;2024-02-23T09:12:38;9.82;;;3.33;;
53108;SDS011;39007;53.090;6.074;2024-02-23T09:15:04;8.55;;;2.25;;
53108;SDS011;39007;53.090;6.074;2024-02-23T09:17:31;12.35;;;4.80;;
53108;SDS011;39007;53.090;6.074;2024-02-23T09:19:57;10.68;;;2.92;;
53108;SDS011;39007;53.090;6.074;2024-02-23T09:22:23;10.10;;;2.70;;
53108;SDS011;39007;53.090;6.074;2024-02-23T09:24:49;7.32;;;2.40;;
53108;SDS011;39007;53.090;6.074;2024-02-23T09:27:15;9.35;;;2.67;;
53108;SDS011;39007;53.090;6.074;2024-02-23T09:29:41;10.50;;;2.40;;
53108;SDS011;39007;53.090;6.074;2024-02-23T09:32:08;11.65;;;3.20;;
53108;SDS011;39007;53.090;6.074;2024-02-23T09:34:34;8.48;;;2.50;;
53108;SDS011;39007;53.090;6.074;2024-02-23T09:37:00;8.25;;;2.55;;
53108;SDS011;39007;53.090;6.074;2024-02-23T09:39:26;11.65;;;2.97;;
53108;SDS011;39007;53.090;6.074;2024-02-23T09:41:55;12.75;;;3.40;;
53108;SDS011;39007;53.090;6.074;2024-02-23T09:44:26;12.52;;;3.05;;
53108;SDS011;39007;53.090;6.074;2024-02-23T09:46:52;11.57;;;3.25;;
53108;SDS011;39007;53.090;6.074;2024-02-23T09:49:18;11.73;;;2.88;;
53108;SDS011;39007;53.090;6.074;2024-02-23T09:51:44;8.70;;;2.72;;
53108;SDS011;39007;53.090;6.074;2024-02-23T09:54:10;8.18;;;2.67;;
53108;SDS011;39007;53.090;6.074;2024-02-23T09:56:36;9.48;;;2.70;;
53108;SDS011;39007;53.090;6.074;2024-02-23T09:59:04;8.75;;;2.65;;
53108;SDS011;39007;53.090;6.074;2024-02-23T10:01:31;10.45;;;2.90;;
53108;SDS011;39007;53.090;6.074;2024-02-23T10:03:58;10.55;;;3.30;;
53108;SDS011;39007;53.090;6.074;2024-02-23T10:06:25;10.07;;;3.30;;
53108;SDS011;39007;53.090;6.074;2024-02-23T10:08:51;10.43;;;3.40;;
53108;SDS011;39007;53.090;6.074;2024-02-23T10:11:20;10.18;;;2.97;;
53108;SDS011;39007;53.090;6.074;2024-02-23T10:13:47;13.20;;;3.15;;
53108;SDS011;39007;53.090;6.074;2024-02-23T10:16:17;11.43;;;3.10;;
53108;SDS011;39007;53.090;6.074;2024-02-23T10:18:45;13.30;;;3.83;;
53108;SDS011;39007;53.090;6.074;2024-02-23T10:21:13;8.98;;;2.65;;
53108;SDS011;39007;53.090;6.074;2024-02-23T10:23:39;6.72;;;2.30;;
53108;SDS011;39007;53.090;6.074;2024-02-23T10:26:07;7.55;;;2.38;;
53108;SDS011;39007;53.090;6.074;2024-02-23T10:28:33;11.05;;;2.38;;
53108;SDS011;39007;53.090;6.074;2024-02-23T10:31:00;10.00;;;2.67;;
53108;SDS011;39007;53.090;6.074;2024-02-23T10:33:27;10.23;;;2.70;;
53108;SDS011;39007;53.090;6.074;2024-02-23T10:35:55;12.50;;;2.75;;
53108;SDS011;39007;53.090;6.074;2024-02-23T10:38:26;9.23;;;2.33;;
53108;SDS011;39007;53.090;6.074;2024-02-23T10:40:54;11.10;;;2.20;;
53108;SDS011;39007;53.090;6.074;2024-02-23T10:43:29;9.90;;;2.40;;
53108;SDS011;39007;53.090;6.074;2024-02-23T10:45:57;8.38;;;2.15;;
53108;SDS011;39007;53.090;6.074;2024-02-23T10:48:23;8.85;;;2.50;;
53108;SDS011;39007;53.090;6.074;2024-02-23T10:50:49;6.80;;;2.47;;
53108;SDS011;39007;53.090;6.074;2024-02-23T10:53:16;8.95;;;2.25;;
53108;SDS011;39007;53.090;6.074;2024-02-23T10:55:42;8.15;;;2.08;;
53108;SDS011;39007;53.090;6.074;2024-02-23T10:58:10;9.35;;;2.20;;
53108;SDS011;39007;53.090;6.074;2024-02-23T11:00:38;8.50;;;2.50;;
53108;SDS011;39007;53.090;6.074;2024-02-23T11:03:04;5.70;;;2.13;;
53108;SDS011;39007;53.090;6.074;2024-02-23T11:05:32;7.43;;;2.17;;
53108;SDS011;39007;53.090;6.074;2024-02-23T11:07:58;10.35;;;2.42;;
53108;SDS011;39007;53.090;6.074;2024-02-23T11:10:25;9.88;;;2.75;;
53108;SDS011;39007;53.090;6.074;2024-02-23T11:12:59;9.25;;;2.80;;
53108;SDS011;39007;53.090;6.074;2024-02-23T11:15:26;11.40;;;3.10;;
53108;SDS011;39007;53.090;6.074;2024-02-23T11:17:53;10.45;;;3.30;;
53108;SDS011;39007;53.090;6.074;2024-02-23T11:20:19;8.43;;;2.97;;
53108;SDS011;39007;53.090;6.074;2024-02-23T11:22:53;7.07;;;2.10;;
53108;SDS011;39007;53.090;6.074;2024-02-23T11:25:19;8.27;;;2.33;;
53108;SDS011;39007;53.090;6.074;2024-02-23T11:27:48;10.18;;;2.38;;
53108;SDS011;39007;53.090;6.074;2024-02-23T11:30:16;7.25;;;2.03;;
53108;SDS011;39007;53.090;6.074;2024-02-23T11:32:43;9.27;;;2.55;;
53108;SDS011;39007;53.090;6.074;2024-02-23T11:35:12;11.02;;;2.50;;
53108;SDS011;39007;53.090;6.074;2024-02-23T11:37:54;10.95;;;2.30;;
53108;SDS011;39007;53.090;6.074;2024-02-23T11:40:24;7.68;;;2.30;;
53108;SDS011;39007;53.090;6.074;2024-02-23T11:42:51;11.50;;;2.70;;
53108;SDS011;39007;53.090;6.074;2024-02-23T11:45:17;8.85;;;2.55;;
53108;SDS011;39007;53.090;6.074;2024-02-23T11:47:43;7.63;;;2.63;;
53108;SDS011;39007;53.090;6.074;2024-02-23T11:50:09;10.45;;;3.20;;
53108;SDS011;39007;53.090;6.074;2024-02-23T11:52:39;10.20;;;2.28;;
53108;SDS011;39007;53.090;6.074;2024-02-23T11:55:05;6.38;;;2.10;;
53108;SDS011;39007;53.090;6.074;2024-02-23T11:57:33;7.55;;;2.53;;
53108;SDS011;39007;53.090;6.074;2024-02-23T12:00:03;6.88;;;2.22;;
53108;SDS011;39007;53.090;6.074;2024-02-23T12:02:29;8.32;;;2.65;;
53108;SDS011;39007;53.090;6.074;2024-02-23T12:04:55;9.07;;;2.53;;
53108;SDS011;39007;53.090;6.074;2024-02-23T12:07:21;8.02;;;2.25;;
53108;SDS011;39007;53.090;6.074;2024-02-23T12:09:48;7.30;;;2.20;;
53108;SDS011;39007;53.090;6.074;2024-02-23T12:12:14;10.73;;;2.30;;
53108;SDS011;39007;53.090;6.074;2024-02-23T12:14:40;12.45;;;2.15;;
53108;SDS011;39007;53.090;6.074;2024-02-23T12:17:07;5.43;;;1.90;;
53108;SDS011;39007;53.090;6.074;2024-02-23T12:19:40;9.25;;;2.10;;
53108;SDS011;39007;53.090;6.074;2024-02-23T12:22:06;5.88;;;1.83;;
53108;SDS011;39007;53.090;6.074;2024-02-23T12:24:32;7.57;;;2.40;;
53108;SDS011;39007;53.090;6.074;2024-02-23T12:26:59;6.30;;;2.00;;
53108;SDS011;39007;53.090;6.074;2024-02-23T12:29:26;7.43;;;2.05;;
53108;SDS011;39007;53.090;6.074;2024-02-23T12:32:05;10.05;;;2.60;;
53108;SDS011;39007;53.090;6.074;2024-02-23T12:34:31;7.35;;;2.20;;
53108;SDS011;39007;53.090;6.074;2024-02-23T12:36:57;10.50;;;2.38;;
53108;SDS011;39007;53.090;6.074;2024-02-23T12:39:23;7.60;;;2.30;;
53108;SDS011;39007;53.090;6.074;2024-02-23T12:41:50;9.93;;;1.92;;
53108;SDS011;39007;53.090;6.074;2024-02-23T12:44:16;7.57;;;2.20;;
53108;SDS011;39007;53.090;6.074;2024-02-23T12:46:42;8.52;;;2.65;;
53108;SDS011;39007;53.090;6.074;2024-02-23T12:49:08;7.28;;;2.20;;
53108;SDS011;39007;53.090;6.074;2024-02-23T12:51:34;7.78;;;2.15;;
53108;SDS011;39007;53.090;6.074;2024-02-23T12:54:00;10.05;;;2.50;;
53108;SDS011;39007;53.090;6.074;2024-02-23T12:56:27;6.85;;;2.10;;
53108;SDS011;39007;53.090;6.074;2024-02-23T12:58:53;7.32;;;2.40;;
53108;SDS011;39007;53.090;6.074;2024-02-23T13:01:20;8.50;;;2.08;;
53108;SDS011;39007;53.090;6.074;2024-02-23T13:03:47;7.15;;;1.95;;
53108;SDS011;39007;53.090;6.074;2024-02-23T13:06:14;8.82;;;2.30;;
53108;SDS011;39007;53.090;6.074;2024-02-23T13:08:40;10.23;;;2.53;;
53108;SDS011;39007;53.090;6.074;2024-02-23T13:11:07;7.93;;;2.13;;
53108;SDS011;39007;53.090;6.074;2024-02-23T13:13:34;7.22;;;2.08;;
53108;SDS011;39007;53.090;6.074;2024-02-23T13:16:00;7.00;;;2.17;;
53108;SDS011;39007;53.090;6.074;2024-02-23T13:18:26;9.50;;;2.20;;
53108;SDS011;39007;53.090;6.074;2024-02-23T13:20:52;11.30;;;2.20;;
53108;SDS011;39007;53.090;6.074;2024-02-23T13:23:18;8.63;;;2.50;;
53108;SDS011;39007;53.090;6.074;2024-02-23T13:25:44;8.90;;;2.45;;
53108;SDS011;39007;53.090;6.074;2024-02-23T13:28:11;6.55;;;1.98;;
53108;SDS011;39007;53.090;6.074;2024-02-23T13:30:37;8.23;;;2.30;;
53108;SDS011;39007;53.090;6.074;2024-02-23T13:33:04;11.75;;;2.45;;
53108;SDS011;39007;53.090;6.074;2024-02-23T13:35:31;13.98;;;2.85;;
53108;SDS011;39007;53.090;6.074;2024-02-23T13:37:57;8.55;;;2.53;;
53108;SDS011;39007;53.090;6.074;2024-02-23T13:40:23;9.95;;;2.13;;
53108;SDS011;39007;53.090;6.074;2024-02-23T13:42:49;7.85;;;2.28;;
53108;SDS011;39007;53.090;6.074;2024-02-23T13:45:17;8.63;;;2.22;;
53108;SDS011;39007;53.090;6.074;2024-02-23T13:47:56;5.88;;;2.13;;
53108;SDS011;39007;53.090;6.074;2024-02-23T13:50:23;9.35;;;2.05;;
53108;SDS011;39007;53.090;6.074;2024-02-23T13:52:50;8.90;;;2.05;;
53108;SDS011;39007;53.090;6.074;2024-02-23T13:55:17;8.63;;;1.65;;
53108;SDS011;39007;53.090;6.074;2024-02-23T13:57:45;7.85;;;2.00;;
53108;SDS011;39007;53.090;6.074;2024-02-23T14:00:12;8.10;;;1.90;;
53108;SDS011;39007;53.090;6.074;2024-02-23T14:02:38;12.43;;;2.28;;
53108;SDS011;39007;53.090;6.074;2024-02-23T14:05:07;7.15;;;1.77;;
53108;SDS011;39007;53.090;6.074;2024-02-23T14:07:34;9.60;;;2.10;;
53108;SDS011;39007;53.090;6.074;2024-02-23T14:10:00;11.63;;;2.10;;
53108;SDS011;39007;53.090;6.074;2024-02-23T14:12:27;8.07;;;1.67;;
53108;SDS011;39007;53.090;6.074;2024-02-23T14:14:53;8.13;;;2.15;;
53108;SDS011;39007;53.090;6.074;2024-02-23T14:17:19;8.85;;;2.03;;
53108;SDS011;39007;53.090;6.074;2024-02-23T14:19:45;7.65;;;2.17;;
53108;SDS011;39007;53.090;6.074;2024-02-23T14:22:12;8.77;;;2.00;;
53108;SDS011;39007;53.090;6.074;2024-02-23T14:24:38;7.03;;;1.98;;
53108;SDS011;39007;53.090;6.074;2024-02-23T14:27:05;10.15;;;2.33;;
53108;SDS011;39007;53.090;6.074;2024-02-23T14:29:32;4.47;;;1.63;;
53108;SDS011;39007;53.090;6.074;2024-02-23T14:31:59;8.13;;;1.92;;
53108;SDS011;39007;53.090;6.074;2024-02-23T14:34:26;8.15;;;1.98;;